Time;durP1;ratioP1;P1;durP2;ratioP2;P2;SDS_P1;SDS_P2;PMS_P1;PMS_P2;Temp;Humidity;BMP_temperature;BMP_pressure;BME280_temperature;BME280_humidity;BME280_pressure;Samples;Min_cycle;Max_cycle;Signal;HPM_P1;HPM_P2
2022/06/07 00:00:09;;;;;;;0.10;0.10;;;;;;;;;;1759792;28;20209;-74
2022/06/07 00:01:02;;;;;;;0.00;0.00;;;;;;;;;;1754786;28;20225;-74
2022/06/07 00:01:54;;;;;;;0.00;0.00;;;;;;;;;;1759812;28;20318;-74
2022/06/07 00:02:46;;;;;;;0.00;0.00;;;;;;;;;;1759665;28;20207;-74
2022/06/07 00:03:37;;;;;;;0.00;0.00;;;;;;;;;;1758696;28;20320;-74
2022/06/07 00:04:29;;;;;;;0.00;0.00;;;;;;;;;;1760340;28;20274;-74
2022/06/07 00:05:21;;;;;;;0.00;0.00;;;;;;;;;;1758134;28;20201;-74
2022/06/07 00:06:13;;;;;;;0.00;0.00;;;;;;;;;;1760873;28;20192;-74
2022/06/07 00:07:05;;;;;;;0.00;0.00;;;;;;;;;;1759484;28;20209;-74
2022/06/07 00:07:57;;;;;;;0.00;0.00;;;;;;;;;;1760272;28;20225;-74
2022/06/07 00:08:50;;;;;;;0.00;0.00;;;;;;;;;;1759919;28;20269;-74
2022/06/07 00:09:42;;;;;;;0.00;0.00;;;;;;;;;;1759345;28;20217;-74
2022/06/07 00:10:33;;;;;;;0.00;0.00;;;;;;;;;;1758537;28;20570;-74
2022/06/07 00:11:25;;;;;;;0.00;0.00;;;;;;;;;;1760327;28;20201;-74
2022/06/07 00:12:17;;;;;;;0.00;0.00;;;;;;;;;;1759580;28;20680;-74
2022/06/07 00:13:11;;;;;;;0.00;0.00;;;;;;;;;;1760226;28;20193;-74
2022/06/07 00:14:03;;;;;;;0.00;0.00;;;;;;;;;;1758813;28;20639;-74
2022/06/07 00:14:55;;;;;;;0.00;0.00;;;;;;;;;;1760044;28;20205;-74
2022/06/07 00:15:46;;;;;;;0.00;0.00;;;;;;;;;;1758321;28;20289;-74
2022/06/07 00:16:38;;;;;;;0.00;0.00;;;;;;;;;;1759503;28;20201;-74
2022/06/07 00:17:30;;;;;;;0.00;0.00;;;;;;;;;;1760077;28;20367;-74
2022/06/07 00:18:23;;;;;;;0.00;0.00;;;;;;;;;;1759916;28;20197;-74
2022/06/07 00:19:14;;;;;;;0.00;0.00;;;;;;;;;;1760029;28;20200;-74
2022/06/07 00:20:08;;;;;;;0.00;0.00;;;;;;;;;;1759584;28;20288;-74
2022/06/07 00:21:01;;;;;;;0.00;0.00;;;;;;;;;;1743163;28;20236;-74
2022/06/07 00:21:53;;;;;;;0.00;0.00;;;;;;;;;;1756803;27;20208;-74
2022/06/07 00:22:44;;;;;;;0.00;0.00;;;;;;;;;;1752438;28;20205;-74
2022/06/07 00:23:37;;;;;;;0.00;0.00;;;;;;;;;;1758504;28;20219;-74
2022/06/07 00:24:28;;;;;;;0.00;0.00;;;;;;;;;;1753161;28;20296;-74
2022/06/07 00:25:21;;;;;;;0.00;0.00;;;;;;;;;;1756204;28;20228;-74
2022/06/07 00:26:12;;;;;;;0.00;0.00;;;;;;;;;;1760904;28;20192;-74
2022/06/07 00:27:05;;;;;;;0.00;0.00;;;;;;;;;;1759295;28;20924;-74
2022/06/07 00:27:57;;;;;;;0.00;0.00;;;;;;;;;;1753556;28;20209;-74
2022/06/07 00:28:50;;;;;;;0.00;0.00;;;;;;;;;;1759106;28;20205;-74
2022/06/07 00:29:44;;;;;;;0.00;0.00;;;;;;;;;;1759994;28;20234;-74
2022/06/07 00:30:36;;;;;;;0.00;0.00;;;;;;;;;;1758310;28;20705;-74
2022/06/07 00:31:28;;;;;;;0.00;0.00;;;;;;;;;;1760207;28;20460;-74
2022/06/07 00:32:21;;;;;;;0.00;0.00;;;;;;;;;;1759516;28;20189;-74
2022/06/07 00:33:13;;;;;;;0.00;0.00;;;;;;;;;;1759570;28;20315;-74
2022/06/07 00:34:05;;;;;;;0.00;0.00;;;;;;;;;;1759956;28;20228;-74
2022/06/07 00:34:56;;;;;;;0.00;0.00;;;;;;;;;;1758766;28;20267;-74
2022/06/07 00:35:49;;;;;;;0.00;0.00;;;;;;;;;;1758657;28;20262;-74
2022/06/07 00:36:41;;;;;;;0.00;0.00;;;;;;;;;;1759799;28;20875;-74
2022/06/07 00:37:33;;;;;;;0.00;0.00;;;;;;;;;;1759834;28;20638;-74
2022/06/07 00:38:24;;;;;;;0.00;0.00;;;;;;;;;;1759547;28;20504;-74
2022/06/07 00:39:16;;;;;;;0.00;0.00;;;;;;;;;;1760332;28;20291;-74
2022/06/07 00:40:08;;;;;;;0.00;0.00;;;;;;;;;;1759615;28;20574;-74
2022/06/07 00:41:00;;;;;;;0.00;0.00;;;;;;;;;;1758045;28;20340;-74
2022/06/07 00:41:52;;;;;;;0.00;0.00;;;;;;;;;;1759817;28;20209;-74
2022/06/07 00:42:45;;;;;;;0.00;0.00;;;;;;;;;;1759782;28;20562;-74
2022/06/07 00:43:36;;;;;;;0.00;0.00;;;;;;;;;;1759364;27;20204;-74
2022/06/07 00:44:38;;;;;;;0.00;0.00;;;;;;;;;;1760022;28;20778;-74
2022/06/07 00:45:31;;;;;;;0.00;0.00;;;;;;;;;;1756835;28;20212;-74
2022/06/07 00:46:22;;;;;;;0.00;0.00;;;;;;;;;;1758702;28;20196;-74
2022/06/07 00:47:16;;;;;;;0.00;0.00;;;;;;;;;;1758671;28;20573;-74
2022/06/07 00:48:07;;;;;;;0.00;0.00;;;;;;;;;;1757458;27;20245;-74
2022/06/07 00:49:00;;;;;;;0.00;0.00;;;;;;;;;;1759779;28;20228;-74
2022/06/07 00:49:52;;;;;;;0.00;0.00;;;;;;;;;;1759494;28;20247;-74
2022/06/07 00:50:47;;;;;;;0.00;0.00;;;;;;;;;;1758814;28;20243;-74
2022/06/07 00:51:39;;;;;;;0.03;0.03;;;;;;;;;;1759019;28;20646;-74
2022/06/07 00:52:31;;;;;;;0.00;0.00;;;;;;;;;;1759580;28;20563;-74
2022/06/07 00:53:26;;;;;;;0.00;0.00;;;;;;;;;;1759152;27;20208;-74
2022/06/07 00:54:19;;;;;;;0.00;0.00;;;;;;;;;;1759798;28;20768;-74
2022/06/07 00:55:11;;;;;;;0.00;0.00;;;;;;;;;;1758694;28;20204;-74
2022/06/07 00:56:03;;;;;;;0.00;0.00;;;;;;;;;;1759433;28;20991;-73
2022/06/07 00:56:56;;;;;;;0.00;0.00;;;;;;;;;;1758723;28;20197;-74
2022/06/07 00:57:47;;;;;;;0.00;0.00;;;;;;;;;;1752846;28;20316;-74
2022/06/07 00:58:40;;;;;;;0.00;0.00;;;;;;;;;;1758219;28;20200;-74
2022/06/07 00:59:31;;;;;;;0.00;0.00;;;;;;;;;;1759379;28;20205;-74
2022/06/07 01:00:25;;;;;;;0.00;0.00;;;;;;;;;;1757105;28;20197;-74
2022/06/07 01:01:17;;;;;;;0.00;0.00;;;;;;;;;;1760350;28;20181;-74
2022/06/07 01:02:10;;;;;;;0.00;0.00;;;;;;;;;;1759443;28;20234;-74
2022/06/07 01:03:01;;;;;;;0.00;0.00;;;;;;;;;;1759448;28;20197;-74
2022/06/07 01:03:53;;;;;;;0.00;0.00;;;;;;;;;;1759558;28;20215;-74
2022/06/07 01:04:44;;;;;;;0.00;0.00;;;;;;;;;;1759659;28;20204;-74
2022/06/07 01:05:37;;;;;;;0.00;0.00;;;;;;;;;;1757608;28;20240;-74
2022/06/07 01:11:09;;;;;;;0.00;0.00;;;;;;;;;;1751978;28;20294;-74
2022/06/07 01:12:00;;;;;;;0.00;0.00;;;;;;;;;;1757861;28;20269;-74
2022/06/07 01:12:52;;;;;;;0.00;0.00;;;;;;;;;;1759511;28;20611;-74
2022/06/07 01:13:44;;;;;;;0.00;0.00;;;;;;;;;;1759331;28;20334;-74
2022/06/07 01:14:36;;;;;;;0.00;0.00;;;;;;;;;;1760102;28;20535;-74
2022/06/07 01:15:31;;;;;;;0.00;0.00;;;;;;;;;;1757850;28;20330;-74
2022/06/07 01:16:23;;;;;;;0.00;0.00;;;;;;;;;;1759884;28;20185;-74
2022/06/07 01:17:15;;;;;;;0.00;0.00;;;;;;;;;;1759124;28;20714;-74
2022/06/07 01:18:09;;;;;;;0.00;0.00;;;;;;;;;;1758791;28;20200;-74
2022/06/07 01:19:01;;;;;;;0.00;0.00;;;;;;;;;;1759678;28;20263;-74
2022/06/07 01:19:53;;;;;;;0.00;0.00;;;;;;;;;;1759222;28;20207;-74
2022/06/07 01:20:44;;;;;;;0.00;0.00;;;;;;;;;;1745043;28;20237;-74
2022/06/07 01:21:40;;;;;;;0.00;0.00;;;;;;;;;;1754028;28;20270;-74
2022/06/07 01:22:31;;;;;;;0.00;0.00;;;;;;;;;;1754348;28;20205;-74
2022/06/07 01:23:24;;;;;;;0.00;0.00;;;;;;;;;;1755790;28;20235;-74
2022/06/07 01:24:16;;;;;;;0.00;0.00;;;;;;;;;;1758920;28;20293;-74
2022/06/07 01:25:09;;;;;;;0.00;0.00;;;;;;;;;;1759360;28;20312;-74
2022/06/07 01:26:00;;;;;;;0.00;0.00;;;;;;;;;;1758691;28;20787;-74
2022/06/07 01:26:53;;;;;;;0.00;0.00;;;;;;;;;;1759163;28;20197;-74
2022/06/07 01:27:44;;;;;;;0.00;0.00;;;;;;;;;;1754987;28;20270;-74
2022/06/07 01:28:36;;;;;;;0.00;0.00;;;;;;;;;;1757889;28;20417;-74
2022/06/07 01:29:28;;;;;;;0.00;0.00;;;;;;;;;;1752639;28;20259;-74
2022/06/07 01:30:21;;;;;;;0.00;0.00;;;;;;;;;;1755741;28;20251;-74
2022/06/07 01:31:12;;;;;;;0.00;0.00;;;;;;;;;;1759869;28;20196;-74
2022/06/07 01:32:05;;;;;;;0.00;0.00;;;;;;;;;;1758316;28;20200;-74
2022/06/07 01:32:58;;;;;;;0.00;0.00;;;;;;;;;;1759607;28;20209;-74
2022/06/07 01:33:49;;;;;;;0.00;0.00;;;;;;;;;;1759451;28;20262;-74
2022/06/07 01:34:42;;;;;;;0.00;0.00;;;;;;;;;;1759603;28;20200;-74
2022/06/07 01:35:33;;;;;;;0.00;0.00;;;;;;;;;;1758074;28;20424;-74
2022/06/07 01:36:26;;;;;;;0.00;0.00;;;;;;;;;;1758838;28;20197;-74
2022/06/07 01:37:20;;;;;;;0.00;0.00;;;;;;;;;;1758650;28;20599;-74
2022/06/07 01:38:12;;;;;;;0.00;0.00;;;;;;;;;;1758212;28;20197;-74
2022/06/07 01:42:34;;;;;;;0.00;0.00;;;;;;;;;;1757321;28;20279;-74
2022/06/07 01:43:25;;;;;;;0.00;0.00;;;;;;;;;;1758871;28;20664;-74
2022/06/07 01:44:18;;;;;;;0.00;0.00;;;;;;;;;;1759140;28;20248;-74
2022/06/07 01:45:09;;;;;;;0.00;0.00;;;;;;;;;;1758927;28;20312;-73
2022/06/07 01:46:04;;;;;;;0.00;0.00;;;;;;;;;;1758273;28;20304;-73
2022/06/07 01:46:56;;;;;;;0.00;0.00;;;;;;;;;;1759612;28;20205;-73
2022/06/07 01:47:48;;;;;;;0.00;0.00;;;;;;;;;;1754248;28;20232;-73
2022/06/07 01:48:40;;;;;;;0.00;0.00;;;;;;;;;;1758669;28;20251;-73
2022/06/07 01:49:32;;;;;;;0.00;0.00;;;;;;;;;;1759555;28;20197;-74
2022/06/07 01:50:23;;;;;;;0.00;0.00;;;;;;;;;;1756980;28;20227;-74
2022/06/07 01:51:16;;;;;;;0.00;0.00;;;;;;;;;;1760340;28;20191;-74
2022/06/07 01:52:08;;;;;;;0.00;0.00;;;;;;;;;;1759423;28;20622;-74
2022/06/07 01:53:01;;;;;;;0.00;0.00;;;;;;;;;;1759597;28;20193;-73
2022/06/07 01:53:53;;;;;;;0.00;0.00;;;;;;;;;;1758588;28;20616;-73
2022/06/07 01:54:45;;;;;;;0.00;0.00;;;;;;;;;;1759251;28;20201;-73
2022/06/07 01:55:36;;;;;;;0.00;0.00;;;;;;;;;;1757707;28;20240;-74
2022/06/07 01:56:29;;;;;;;0.00;0.00;;;;;;;;;;1759290;28;20209;-74
2022/06/07 01:57:20;;;;;;;0.00;0.00;;;;;;;;;;1759153;28;20205;-74
2022/06/07 01:58:12;;;;;;;0.00;0.00;;;;;;;;;;1759255;28;20197;-74
2022/06/07 01:59:04;;;;;;;0.00;0.00;;;;;;;;;;1759764;28;20205;-74
2022/06/07 01:59:58;;;;;;;0.00;0.00;;;;;;;;;;1759397;28;20475;-74
2022/06/07 02:00:49;;;;;;;0.00;0.00;;;;;;;;;;1758114;28;20292;-74
2022/06/07 02:01:41;;;;;;;0.00;0.00;;;;;;;;;;1758315;28;20204;-74
2022/06/07 02:02:32;;;;;;;0.00;0.00;;;;;;;;;;1759439;28;20265;-74
2022/06/07 02:03:25;;;;;;;0.00;0.00;;;;;;;;;;1758220;28;20197;-74
2022/06/07 02:04:16;;;;;;;0.00;0.00;;;;;;;;;;1759619;28;20637;-74
2022/06/07 02:05:08;;;;;;;0.00;0.00;;;;;;;;;;1759107;28;20596;-74
2022/06/07 02:06:00;;;;;;;0.00;0.00;;;;;;;;;;1758499;28;20648;-74
2022/06/07 02:06:53;;;;;;;0.00;0.00;;;;;;;;;;1759070;28;20208;-74
2022/06/07 02:07:44;;;;;;;0.00;0.00;;;;;;;;;;1759124;28;20745;-74
2022/06/07 02:08:38;;;;;;;0.00;0.00;;;;;;;;;;1758869;28;20234;-74
2022/06/07 02:09:29;;;;;;;0.00;0.00;;;;;;;;;;1752981;28;20201;-73
2022/06/07 02:10:21;;;;;;;0.00;0.00;;;;;;;;;;1756604;28;20254;-74
2022/06/07 02:11:14;;;;;;;0.00;0.00;;;;;;;;;;1760308;28;20358;-74
2022/06/07 02:12:06;;;;;;;0.00;0.00;;;;;;;;;;1759044;28;20292;-74
2022/06/07 02:12:57;;;;;;;0.00;0.00;;;;;;;;;;1759369;28;20257;-74
2022/06/07 02:13:50;;;;;;;0.00;0.00;;;;;;;;;;1758545;28;20283;-74
2022/06/07 02:14:41;;;;;;;0.00;0.00;;;;;;;;;;1759064;28;20666;-74
2022/06/07 02:15:33;;;;;;;0.00;0.00;;;;;;;;;;1758171;28;20251;-74
2022/06/07 02:16:25;;;;;;;0.00;0.00;;;;;;;;;;1759808;28;20249;-75
2022/06/07 02:17:17;;;;;;;0.00;0.00;;;;;;;;;;1759293;28;20200;-74
2022/06/07 02:18:08;;;;;;;0.00;0.00;;;;;;;;;;1759674;28;20201;-74
2022/06/07 02:19:00;;;;;;;0.00;0.00;;;;;;;;;;1759344;28;20565;-74
2022/06/07 02:19:52;;;;;;;0.00;0.00;;;;;;;;;;1758774;28;20243;-74
2022/06/07 02:20:46;;;;;;;0.00;0.00;;;;;;;;;;1757876;28;20263;-74
2022/06/07 02:21:37;;;;;;;0.00;0.00;;;;;;;;;;1759059;28;20231;-75
2022/06/07 02:22:29;;;;;;;0.00;0.00;;;;;;;;;;1759392;28;20308;-75
2022/06/07 02:23:21;;;;;;;0.00;0.00;;;;;;;;;;1759019;28;20292;-74
2022/06/07 02:24:15;;;;;;;0.00;0.00;;;;;;;;;;1759844;28;20197;-75
2022/06/07 02:25:06;;;;;;;0.00;0.00;;;;;;;;;;1759185;28;20261;-74
2022/06/07 02:26:01;;;;;;;0.00;0.00;;;;;;;;;;1757802;28;20543;-74
2022/06/07 02:26:54;;;;;;;0.00;0.00;;;;;;;;;;1758281;28;20201;-74
2022/06/07 02:27:46;;;;;;;0.00;0.00;;;;;;;;;;1754717;28;20201;-74
2022/06/07 02:28:39;;;;;;;0.00;0.00;;;;;;;;;;1757517;28;20263;-74
2022/06/07 02:29:33;;;;;;;0.00;0.00;;;;;;;;;;1759619;28;20239;-74
2022/06/07 02:30:24;;;;;;;0.00;0.00;;;;;;;;;;1757301;28;20281;-74
2022/06/07 02:31:17;;;;;;;0.00;0.00;;;;;;;;;;1760126;28;20288;-74
2022/06/07 02:32:10;;;;;;;0.00;0.00;;;;;;;;;;1758441;28;20201;-74
2022/06/07 02:33:02;;;;;;;0.00;0.00;;;;;;;;;;1758292;28;20205;-74
2022/06/07 02:33:54;;;;;;;0.00;0.00;;;;;;;;;;1759103;28;20265;-74
2022/06/07 02:34:47;;;;;;;0.00;0.00;;;;;;;;;;1759606;28;20699;-74
2022/06/07 02:35:40;;;;;;;0.00;0.00;;;;;;;;;;1758037;28;20651;-74
2022/06/07 02:36:32;;;;;;;0.00;0.00;;;;;;;;;;1759220;28;20646;-74
2022/06/07 02:37:24;;;;;;;0.00;0.00;;;;;;;;;;1759479;28;20201;-74
2022/06/07 02:38:16;;;;;;;0.00;0.00;;;;;;;;;;1758727;28;20251;-74
2022/06/07 02:39:08;;;;;;;0.00;0.00;;;;;;;;;;1758826;28;20543;-74
2022/06/07 02:40:02;;;;;;;0.00;0.00;;;;;;;;;;1758984;28;20330;-74
2022/06/07 02:40:53;;;;;;;0.00;0.00;;;;;;;;;;1756321;28;20280;-74
2022/06/07 02:41:47;;;;;;;0.00;0.00;;;;;;;;;;1759190;28;20285;-74
2022/06/07 02:42:38;;;;;;;0.00;0.00;;;;;;;;;;1759143;28;20585;-74
2022/06/07 02:43:33;;;;;;;0.00;0.00;;;;;;;;;;1759256;28;20223;-74
2022/06/07 02:44:25;;;;;;;0.00;0.00;;;;;;;;;;1758563;28;20297;-74
2022/06/07 02:45:17;;;;;;;0.00;0.00;;;;;;;;;;1756522;28;20198;-74
2022/06/07 02:46:08;;;;;;;0.00;0.00;;;;;;;;;;1757739;28;20485;-74
2022/06/07 02:47:01;;;;;;;0.00;0.00;;;;;;;;;;1758818;28;20196;-74
2022/06/07 02:47:52;;;;;;;0.00;0.00;;;;;;;;;;1757166;28;20657;-74
2022/06/07 02:48:44;;;;;;;0.00;0.00;;;;;;;;;;1759510;28;20197;-74
2022/06/07 02:49:36;;;;;;;0.00;0.00;;;;;;;;;;1761113;28;20280;-74
2022/06/07 02:50:30;;;;;;;0.00;0.00;;;;;;;;;;1757018;28;20212;-74
2022/06/07 02:51:22;;;;;;;0.00;0.00;;;;;;;;;;1759852;28;20288;-74
2022/06/07 02:52:14;;;;;;;0.00;0.00;;;;;;;;;;1760322;28;20197;-74
2022/06/07 02:53:06;;;;;;;0.00;0.00;;;;;;;;;;1760577;28;20989;-74
2022/06/07 02:53:58;;;;;;;0.00;0.00;;;;;;;;;;1760604;28;20255;-74
2022/06/07 02:54:49;;;;;;;0.00;0.00;;;;;;;;;;1760623;28;20292;-74
2022/06/07 02:55:43;;;;;;;0.00;0.00;;;;;;;;;;1759459;28;20239;-74
2022/06/07 02:56:34;;;;;;;0.00;0.00;;;;;;;;;;1760362;28;20565;-74
2022/06/07 02:57:27;;;;;;;0.00;0.00;;;;;;;;;;1759874;28;20201;-74
2022/06/07 02:58:18;;;;;;;0.00;0.00;;;;;;;;;;1760402;28;20212;-74
2022/06/07 02:59:10;;;;;;;0.00;0.00;;;;;;;;;;1760842;28;20205;-74
2022/06/07 03:00:03;;;;;;;0.00;0.00;;;;;;;;;;1760438;28;20296;-74
2022/06/07 03:00:55;;;;;;;0.00;0.00;;;;;;;;;;1759153;28;20335;-74
2022/06/07 03:01:48;;;;;;;0.00;0.00;;;;;;;;;;1760524;28;20228;-74
2022/06/07 03:02:40;;;;;;;0.00;0.00;;;;;;;;;;1760622;28;20276;-74
2022/06/07 03:03:32;;;;;;;0.00;0.00;;;;;;;;;;1759409;28;20716;-74
2022/06/07 03:04:23;;;;;;;0.00;0.00;;;;;;;;;;1760880;28;20196;-74
2022/06/07 03:05:16;;;;;;;0.00;0.00;;;;;;;;;;1759354;28;20227;-74
2022/06/07 03:06:07;;;;;;;0.00;0.00;;;;;;;;;;1760708;28;20233;-74
2022/06/07 03:07:00;;;;;;;0.00;0.00;;;;;;;;;;1760142;28;20692;-74
2022/06/07 03:07:51;;;;;;;0.00;0.00;;;;;;;;;;1761141;28;20212;-74
2022/06/07 03:08:44;;;;;;;0.00;0.00;;;;;;;;;;1760351;28;20585;-74
2022/06/07 03:09:35;;;;;;;0.00;0.00;;;;;;;;;;1760329;28;20213;-74
2022/06/07 03:10:27;;;;;;;0.00;0.00;;;;;;;;;;1758453;28;20200;-74
2022/06/07 03:11:20;;;;;;;0.00;0.00;;;;;;;;;;1760611;28;20212;-74
2022/06/07 03:12:12;;;;;;;0.00;0.00;;;;;;;;;;1760709;28;20687;-74
2022/06/07 03:13:03;;;;;;;0.00;0.00;;;;;;;;;;1760505;28;20652;-74
2022/06/07 03:13:56;;;;;;;0.00;0.00;;;;;;;;;;1760351;28;20323;-74
2022/06/07 03:14:47;;;;;;;0.00;0.00;;;;;;;;;;1760768;28;20216;-74
2022/06/07 03:15:39;;;;;;;0.00;0.00;;;;;;;;;;1758347;28;20232;-74
2022/06/07 03:16:31;;;;;;;0.00;0.00;;;;;;;;;;1759954;28;20221;-74
2022/06/07 03:17:24;;;;;;;0.00;0.00;;;;;;;;;;1760119;28;20224;-74
2022/06/07 03:18:17;;;;;;;0.00;0.00;;;;;;;;;;1760334;28;20643;-74
2022/06/07 03:19:09;;;;;;;0.00;0.00;;;;;;;;;;1760751;28;20224;-74
2022/06/07 03:20:01;;;;;;;0.00;0.00;;;;;;;;;;1759976;28;20509;-74
2022/06/07 03:20:53;;;;;;;0.00;0.00;;;;;;;;;;1759481;28;20272;-74
2022/06/07 03:21:44;;;;;;;0.00;0.00;;;;;;;;;;1759888;28;20623;-74
2022/06/07 03:22:37;;;;;;;0.00;0.00;;;;;;;;;;1759688;28;20240;-74
2022/06/07 03:23:28;;;;;;;0.00;0.00;;;;;;;;;;1760081;28;20300;-75
2022/06/07 03:24:21;;;;;;;0.00;0.00;;;;;;;;;;1760579;28;20193;-74
2022/06/07 03:25:12;;;;;;;0.00;0.00;;;;;;;;;;1760187;28;20224;-74
2022/06/07 03:26:05;;;;;;;0.00;0.00;;;;;;;;;;1759266;28;20285;-74
2022/06/07 03:26:58;;;;;;;0.00;0.00;;;;;;;;;;1760026;28;20201;-74
2022/06/07 03:27:50;;;;;;;0.00;0.00;;;;;;;;;;1752917;28;20229;-74
2022/06/07 03:28:41;;;;;;;0.00;0.00;;;;;;;;;;1758611;28;20213;-74
2022/06/07 03:29:34;;;;;;;0.00;0.00;;;;;;;;;;1760822;28;20239;-74
2022/06/07 03:30:27;;;;;;;0.00;0.00;;;;;;;;;;1747025;28;20654;-74
2022/06/07 03:31:20;;;;;;;0.00;0.00;;;;;;;;;;1753798;28;20280;-74
2022/06/07 03:32:11;;;;;;;0.00;0.00;;;;;;;;;;1756567;28;20411;-74
2022/06/07 03:33:04;;;;;;;0.00;0.00;;;;;;;;;;1754190;28;20231;-74
2022/06/07 03:33:55;;;;;;;0.00;0.00;;;;;;;;;;1759982;28;20224;-74
2022/06/07 03:34:47;;;;;;;0.00;0.00;;;;;;;;;;1759602;28;20196;-74
2022/06/07 03:35:39;;;;;;;0.00;0.00;;;;;;;;;;1759073;28;20377;-74
2022/06/07 03:36:31;;;;;;;0.00;0.00;;;;;;;;;;1760262;28;20204;-74
2022/06/07 03:37:22;;;;;;;0.00;0.00;;;;;;;;;;1760365;28;20296;-74
2022/06/07 03:38:15;;;;;;;0.00;0.00;;;;;;;;;;1759950;28;20189;-74
2022/06/07 03:39:07;;;;;;;0.00;0.00;;;;;;;;;;1760645;28;20209;-74
2022/06/07 03:39:59;;;;;;;0.00;0.00;;;;;;;;;;1760078;28;21561;-74
2022/06/07 03:40:50;;;;;;;0.00;0.00;;;;;;;;;;1758369;28;20221;-74
2022/06/07 03:41:43;;;;;;;0.00;0.00;;;;;;;;;;1759966;28;20205;-74
2022/06/07 03:42:35;;;;;;;0.00;0.00;;;;;;;;;;1759892;28;20373;-74
2022/06/07 03:43:27;;;;;;;0.00;0.00;;;;;;;;;;1757655;27;20204;-74
2022/06/07 03:44:19;;;;;;;0.00;0.00;;;;;;;;;;1759985;28;20228;-75
2022/06/07 03:45:11;;;;;;;0.00;0.00;;;;;;;;;;1759541;27;20228;-75
2022/06/07 03:46:07;;;;;;;0.00;0.00;;;;;;;;;;1755601;28;20690;-74
2022/06/07 03:46:59;;;;;;;0.00;0.00;;;;;;;;;;1757339;28;20200;-74
2022/06/07 03:47:50;;;;;;;0.00;0.00;;;;;;;;;;1760144;28;20639;-74
2022/06/07 03:48:43;;;;;;;0.00;0.00;;;;;;;;;;1759741;28;20852;-74
2022/06/07 03:49:34;;;;;;;0.00;0.00;;;;;;;;;;1760592;28;20205;-74
2022/06/07 03:50:26;;;;;;;0.00;0.00;;;;;;;;;;1757863;28;20279;-74
2022/06/07 03:51:19;;;;;;;0.00;0.00;;;;;;;;;;1760631;28;20208;-74
2022/06/07 03:52:11;;;;;;;0.00;0.00;;;;;;;;;;1760088;28;20196;-74
2022/06/07 03:53:02;;;;;;;0.00;0.00;;;;;;;;;;1759490;28;20350;-74
2022/06/07 03:53:55;;;;;;;0.00;0.00;;;;;;;;;;1760008;28;20209;-74
2022/06/07 03:54:48;;;;;;;0.00;0.00;;;;;;;;;;1760050;28;20288;-74
2022/06/07 03:55:42;;;;;;;0.00;0.00;;;;;;;;;;1759137;28;20280;-74
2022/06/07 03:56:34;;;;;;;0.00;0.00;;;;;;;;;;1760003;28;20197;-74
2022/06/07 03:57:26;;;;;;;0.00;0.00;;;;;;;;;;1760072;28;20997;-74
2022/06/07 03:58:19;;;;;;;0.00;0.00;;;;;;;;;;1759995;28;20625;-74
2022/06/07 03:59:11;;;;;;;0.00;0.00;;;;;;;;;;1759737;28;20204;-74
2022/06/07 04:00:06;;;;;;;0.00;0.00;;;;;;;;;;1758368;28;20205;-74
2022/06/07 04:00:59;;;;;;;0.00;0.00;;;;;;;;;;1758985;28;20224;-74
2022/06/07 04:01:50;;;;;;;0.00;0.00;;;;;;;;;;1759712;28;20361;-74
2022/06/07 04:02:42;;;;;;;0.00;0.00;;;;;;;;;;1759808;28;20557;-74
2022/06/07 04:03:34;;;;;;;0.00;0.00;;;;;;;;;;1757895;28;20296;-74
2022/06/07 04:04:26;;;;;;;0.00;0.00;;;;;;;;;;1763574;27;20196;-74
2022/06/07 04:05:18;;;;;;;0.00;0.00;;;;;;;;;;1759204;27;20229;-74
2022/06/07 04:06:16;;;;;;;0.00;0.00;;;;;;;;;;1760585;28;20538;-74
2022/06/07 04:08:17;;;;;;;0.00;0.00;;;;;;;;;;1760347;27;20196;-74
2022/06/07 04:09:10;;;;;;;0.00;0.00;;;;;;;;;;1760403;28;20208;-74
2022/06/07 04:10:01;;;;;;;0.00;0.00;;;;;;;;;;1759663;28;20216;-74
2022/06/07 04:10:54;;;;;;;0.00;0.00;;;;;;;;;;1758423;28;20315;-74
2022/06/07 04:11:46;;;;;;;0.00;0.00;;;;;;;;;;1758781;28;20428;-74
2022/06/07 04:12:38;;;;;;;0.00;0.00;;;;;;;;;;1760035;28;20212;-74
2022/06/07 04:13:32;;;;;;;0.00;0.00;;;;;;;;;;1759994;27;20291;-74
2022/06/07 04:14:24;;;;;;;0.00;0.00;;;;;;;;;;1760361;28;20493;-74
2022/06/07 04:15:15;;;;;;;0.00;0.00;;;;;;;;;;1759050;28;20588;-74
2022/06/07 04:16:08;;;;;;;0.00;0.00;;;;;;;;;;1759788;28;20642;-74
2022/06/07 04:16:59;;;;;;;0.00;0.00;;;;;;;;;;1759553;28;20266;-74
2022/06/07 04:19:15;;;;;;;0.00;0.00;;;;;;;;;;1733469;28;20376;-74
2022/06/07 04:20:38;;;;;;;0.00;0.00;;;;;;;;;;1733734;28;20230;-73
2022/06/07 04:21:29;;;;;;;0.00;0.00;;;;;;;;;;1697555;28;20972;-73
2022/06/07 04:22:21;;;;;;;0.00;0.00;;;;;;;;;;1700860;29;20237;-73
2022/06/07 04:23:14;;;;;;;0.00;0.00;;;;;;;;;;1698616;29;20306;-73
2022/06/07 04:24:07;;;;;;;0.00;0.00;;;;;;;;;;1717682;28;20604;-73
2022/06/07 04:24:58;;;;;;;0.00;0.00;;;;;;;;;;1732215;28;20585;-73
2022/06/07 04:25:50;;;;;;;0.00;0.00;;;;;;;;;;1732764;28;20227;-73
2022/06/07 04:26:42;;;;;;;0.00;0.00;;;;;;;;;;1732909;28;20245;-74
2022/06/07 04:27:34;;;;;;;0.00;0.00;;;;;;;;;;1733167;28;20195;-74
2022/06/07 04:28:25;;;;;;;0.00;0.00;;;;;;;;;;1733004;28;20203;-74
2022/06/07 04:29:19;;;;;;;0.00;0.00;;;;;;;;;;1733287;28;20199;-74
2022/06/07 04:30:11;;;;;;;0.00;0.00;;;;;;;;;;1733304;28;20294;-74
2022/06/07 04:31:03;;;;;;;0.00;0.00;;;;;;;;;;1730808;28;20286;-74
2022/06/07 04:31:54;;;;;;;0.00;0.00;;;;;;;;;;1734785;28;20304;-74
2022/06/07 04:32:47;;;;;;;0.00;0.00;;;;;;;;;;1735046;28;20735;-73
2022/06/07 04:33:39;;;;;;;0.00;0.00;;;;;;;;;;1736226;28;20302;-73
2022/06/07 04:34:31;;;;;;;0.00;0.00;;;;;;;;;;1731560;28;20823;-73
2022/06/07 04:35:22;;;;;;;0.00;0.00;;;;;;;;;;1733336;28;20618;-73
2022/06/07 04:36:16;;;;;;;0.00;0.00;;;;;;;;;;1731702;28;20530;-73
2022/06/07 04:37:07;;;;;;;0.00;0.00;;;;;;;;;;1734283;28;20199;-74
2022/06/07 04:37:59;;;;;;;0.00;0.00;;;;;;;;;;1731577;28;20664;-74
2022/06/07 04:38:51;;;;;;;0.00;0.00;;;;;;;;;;1735009;28;20297;-74
2022/06/07 04:39:44;;;;;;;0.00;0.00;;;;;;;;;;1731866;28;20294;-74
2022/06/07 04:40:35;;;;;;;0.00;0.00;;;;;;;;;;1733568;28;20329;-74
2022/06/07 04:41:27;;;;;;;0.00;0.00;;;;;;;;;;1731808;28;20683;-74
2022/06/07 04:42:19;;;;;;;0.00;0.00;;;;;;;;;;1736690;28;20277;-74
2022/06/07 04:43:11;;;;;;;0.00;0.00;;;;;;;;;;1736409;28;20198;-74
2022/06/07 04:44:03;;;;;;;0.00;0.00;;;;;;;;;;1736463;28;20301;-74
2022/06/07 04:44:56;;;;;;;0.00;0.00;;;;;;;;;;1736177;28;20201;-74
2022/06/07 04:45:48;;;;;;;0.00;0.00;;;;;;;;;;1734247;28;20729;-74
2022/06/07 04:46:40;;;;;;;0.00;0.00;;;;;;;;;;1735978;28;20280;-74
2022/06/07 04:47:31;;;;;;;0.00;0.00;;;;;;;;;;1733326;28;20268;-74
2022/06/07 04:48:24;;;;;;;0.00;0.00;;;;;;;;;;1735421;28;20618;-74
2022/06/07 04:49:15;;;;;;;0.00;0.00;;;;;;;;;;1731249;28;20678;-74
2022/06/07 04:50:07;;;;;;;0.00;0.00;;;;;;;;;;1733908;28;20298;-74
2022/06/07 04:51:03;;;;;;;0.00;0.00;;;;;;;;;;1731273;28;20234;-74
2022/06/07 04:51:54;;;;;;;0.00;0.00;;;;;;;;;;1736358;28;20763;-74
2022/06/07 04:52:47;;;;;;;0.00;0.00;;;;;;;;;;1731509;28;20302;-74
2022/06/07 04:53:38;;;;;;;0.00;0.00;;;;;;;;;;1735144;28;20273;-74
2022/06/07 04:54:31;;;;;;;0.00;0.00;;;;;;;;;;1731332;28;20226;-74
2022/06/07 04:55:22;;;;;;;0.00;0.00;;;;;;;;;;1732501;28;20345;-74
2022/06/07 04:56:16;;;;;;;0.00;0.00;;;;;;;;;;1732127;28;20202;-74
2022/06/07 04:57:07;;;;;;;0.00;0.00;;;;;;;;;;1736592;28;20545;-74
2022/06/07 04:58:00;;;;;;;0.00;0.00;;;;;;;;;;1746063;28;20218;-74
2022/06/07 04:58:51;;;;;;;0.00;0.00;;;;;;;;;;1752554;28;20217;-74
2022/06/07 04:59:44;;;;;;;0.00;0.00;;;;;;;;;;1752919;28;20627;-74
2022/06/07 05:00:37;;;;;;;0.00;0.00;;;;;;;;;;1751149;28;20759;-74
2022/06/07 05:01:30;;;;;;;0.00;0.00;;;;;;;;;;1752439;28;20197;-74
2022/06/07 05:02:22;;;;;;;0.00;0.00;;;;;;;;;;1751728;28;20301;-74
2022/06/07 05:03:14;;;;;;;0.00;0.00;;;;;;;;;;1752424;28;20556;-74
2022/06/07 05:04:07;;;;;;;0.00;0.00;;;;;;;;;;1752701;28;20610;-74
2022/06/07 05:04:59;;;;;;;0.00;0.00;;;;;;;;;;1752789;28;20288;-74
2022/06/07 05:05:50;;;;;;;0.00;0.00;;;;;;;;;;1743267;28;20209;-74
2022/06/07 05:06:43;;;;;;;0.00;0.00;;;;;;;;;;1752542;28;20484;-74
2022/06/07 05:07:35;;;;;;;0.00;0.00;;;;;;;;;;1752078;28;20197;-74
2022/06/07 05:08:27;;;;;;;0.00;0.00;;;;;;;;;;1752314;28;20201;-74
2022/06/07 05:09:20;;;;;;;0.00;0.00;;;;;;;;;;1753072;28;20718;-74
2022/06/07 05:10:16;;;;;;;0.00;0.00;;;;;;;;;;1750970;28;20683;-74
2022/06/07 05:11:07;;;;;;;0.00;0.00;;;;;;;;;;1752741;28;20278;-74
2022/06/07 05:11:59;;;;;;;0.00;0.00;;;;;;;;;;1752096;28;20205;-74
2022/06/07 05:12:51;;;;;;;0.00;0.00;;;;;;;;;;1752720;28;20551;-74
2022/06/07 05:13:43;;;;;;;0.00;0.00;;;;;;;;;;1751406;28;20646;-74
2022/06/07 05:14:35;;;;;;;0.00;0.00;;;;;;;;;;1752794;28;20363;-73
2022/06/07 05:15:30;;;;;;;0.00;0.00;;;;;;;;;;1750540;28;20250;-73
2022/06/07 05:16:23;;;;;;;0.00;0.00;;;;;;;;;;1752645;28;20186;-73
2022/06/07 05:17:15;;;;;;;0.00;0.00;;;;;;;;;;1751961;28;20202;-73
2022/06/07 05:18:08;;;;;;;0.00;0.00;;;;;;;;;;1753016;28;20729;-73
2022/06/07 05:19:01;;;;;;;0.00;0.00;;;;;;;;;;1752685;28;20205;-73
2022/06/07 05:19:52;;;;;;;0.00;0.00;;;;;;;;;;1751597;28;20233;-73
2022/06/07 05:20:44;;;;;;;0.00;0.00;;;;;;;;;;1750998;28;20229;-73
2022/06/07 05:21:39;;;;;;;0.00;0.00;;;;;;;;;;1753031;28;20263;-74
2022/06/07 05:22:31;;;;;;;0.00;0.00;;;;;;;;;;1752474;28;20679;-73
2022/06/07 05:23:22;;;;;;;0.00;0.00;;;;;;;;;;1752384;28;20214;-73
2022/06/07 05:24:15;;;;;;;0.00;0.00;;;;;;;;;;1750973;28;20643;-73